Terminal Aerodrome Forecast
Issued by NWS Brownsville, TX

Home | Current Version | Previous Version | Text Only | Print | Product List | Glossary On
Versions: 1 2 3 4 5 6 7 8 9 10 11 12 13 14 15 16
000
FTUS44 KBRO 061740
TAFBRO
TAF
KBRO 061740Z 0618/0718 15022G30KT P6SM FEW035 BKN050
     FM062300 15018G22KT P6SM FEW025
     FM070400 14012KT P6SM SCT025
     FM071100 15009KT P6SM BKN025
     FM071400 16018G28KT P6SM SCT035=

USA.gov is the U.S. government's official web portal to all federal, state and local government web resources and services.